Terminal Aerodrome Forecast
Issued by NWS Louisville, KY

Home | Current Version | Previous Version | Text Only | Print | Product List | Glossary On
Versions: 1 2 3 4 5 6 7 8 9 10 11 12 13
000
FTUS43 KLMK 232321
TAFLEX
TAF
KLEX 232321Z 2400/2424 17008KT P6SM BKN050 BKN100
     FM240600 18012KT P6SM SCT040 WS018/20046KT
     FM241400 20012G21KT P6SM BKN040=

USA.gov is the U.S. government's official web portal to all federal, state and local government web resources and services.